createdAt,value
2024-01-29T00:01:04.229Z,-3.10
2024-01-29T00:03:31.041Z,-3.20
2024-01-29T00:05:57.703Z,-3.20
2024-01-29T00:08:24.912Z,-3.20
2024-01-29T00:10:52.179Z,-3.10
2024-01-29T00:13:18.981Z,-3.10
2024-01-29T00:15:45.625Z,-3.00
2024-01-29T00:18:12.375Z,-3.00
2024-01-29T00:20:39.015Z,-3.00
2024-01-29T00:23:05.624Z,-3.10
2024-01-29T00:25:33.067Z,-3.20
2024-01-29T00:27:59.791Z,-3.20
2024-01-29T00:30:26.531Z,-3.20
2024-01-29T00:32:53.299Z,-3.20
2024-01-29T00:35:20.626Z,-3.20
2024-01-29T00:37:47.232Z,-3.20
2024-01-29T00:40:14.996Z,-3.20
2024-01-29T00:42:41.978Z,-3.30
2024-01-29T00:45:10.240Z,-3.30
2024-01-29T00:47:36.985Z,-3.20
2024-01-29T00:50:09.616Z,-3.20
2024-01-29T00:52:36.208Z,-3.30
2024-01-29T00:55:04.992Z,-3.20
2024-01-29T00:57:31.669Z,-3.30
2024-01-29T00:59:58.342Z,-3.40
2024-01-29T01:02:24.960Z,-3.50
2024-01-29T01:04:51.688Z,-3.50
2024-01-29T01:07:18.422Z,-3.50
2024-01-29T01:09:45.056Z,-3.50
2024-01-29T01:12:11.692Z,-3.40
2024-01-29T01:14:38.313Z,-3.40
2024-01-29T01:17:05.692Z,-3.40
2024-01-29T01:19:32.560Z,-3.40
2024-01-29T01:21:59.399Z,-3.50
2024-01-29T01:24:26.035Z,-3.50
2024-01-29T01:26:52.663Z,-3.50
2024-01-29T01:29:19.516Z,-3.50
2024-01-29T01:31:46.181Z,-3.50
2024-01-29T01:34:12.815Z,-3.50
2024-01-29T01:36:39.610Z,-3.50
2024-01-29T01:39:06.497Z,-3.40
2024-01-29T01:41:33.108Z,-3.50
2024-01-29T01:44:00.214Z,-3.40
2024-01-29T01:46:27.001Z,-3.50
2024-01-29T01:48:57.678Z,-3.60
2024-01-29T01:51:24.685Z,-3.60
2024-01-29T01:53:53.748Z,-3.70
2024-01-29T01:56:20.673Z,-3.70
2024-01-29T01:58:47.549Z,-3.60
2024-01-29T02:01:14.451Z,-3.60
2024-01-29T02:03:41.619Z,-3.60
2024-01-29T02:06:08.378Z,-3.50
2024-01-29T02:08:35.162Z,-3.70
2024-01-29T02:11:01.947Z,-3.70
2024-01-29T02:13:28.590Z,-3.70
2024-01-29T02:15:55.439Z,-3.70
2024-01-29T02:18:22.615Z,-3.70
2024-01-29T02:20:49.306Z,-3.60
2024-01-29T02:23:15.960Z,-3.60
2024-01-29T02:25:42.626Z,-3.70
2024-01-29T02:28:09.313Z,-3.80
2024-01-29T02:30:36.050Z,-4.00
2024-01-29T02:33:02.891Z,-4.20
2024-01-29T02:35:30.076Z,-4.10
2024-01-29T02:37:57.000Z,-4.20
2024-01-29T02:40:23.647Z,-4.20
2024-01-29T02:42:50.404Z,-4.20
2024-01-29T02:45:17.071Z,-4.00
2024-01-29T02:47:43.723Z,-3.90
2024-01-29T02:50:10.513Z,-3.90
2024-01-29T02:52:37.384Z,-3.90
2024-01-29T02:55:04.702Z,-3.90
2024-01-29T02:57:31.939Z,-4.00
2024-01-29T02:59:58.668Z,-4.10
2024-01-29T03:02:25.345Z,-4.00
2024-01-29T03:04:52.928Z,-4.00
2024-01-29T03:07:19.663Z,-4.00
2024-01-29T03:09:46.653Z,-4.10
2024-01-29T03:12:13.317Z,-4.20
2024-01-29T03:14:40.170Z,-4.10
2024-01-29T03:17:06.875Z,-4.00
2024-01-29T03:19:33.702Z,-4.00
2024-01-29T03:22:00.742Z,-4.00
2024-01-29T03:24:27.503Z,-4.00
2024-01-29T03:26:54.175Z,-4.10
2024-01-29T03:29:20.792Z,-4.10
2024-01-29T03:31:47.414Z,-4.00
2024-01-29T03:34:14.166Z,-4.00
2024-01-29T03:36:40.864Z,-4.00
2024-01-29T03:39:07.505Z,-4.00
2024-01-29T03:41:36.665Z,-4.10
2024-01-29T03:44:03.817Z,-4.10
2024-01-29T03:46:30.490Z,-4.10
2024-01-29T03:48:57.191Z,-4.00
2024-01-29T03:51:24.218Z,-4.00
2024-01-29T03:53:51.097Z,-4.00
2024-01-29T03:56:18.077Z,-4.00
2024-01-29T03:58:44.662Z,-4.00
2024-01-29T04:01:11.400Z,-4.00
2024-01-29T04:03:41.513Z,-4.00
2024-01-29T04:06:08.925Z,-3.90
2024-01-29T04:08:35.629Z,-4.00
2024-01-29T04:11:02.354Z,-4.10
2024-01-29T04:13:28.961Z,-4.10
2024-01-29T04:15:55.814Z,-4.10
2024-01-29T04:18:22.802Z,-4.00
2024-01-29T04:20:50.655Z,-4.00
2024-01-29T04:23:17.353Z,-4.10
2024-01-29T04:25:44.023Z,-4.10
2024-01-29T04:28:10.718Z,-4.20
2024-01-29T04:30:37.650Z,-4.10
2024-01-29T04:33:04.380Z,-4.20
2024-01-29T04:35:31.085Z,-4.20
2024-01-29T04:37:57.787Z,-4.10
2024-01-29T04:40:24.434Z,-4.10
2024-01-29T04:42:51.141Z,-4.20
2024-01-29T04:45:17.865Z,-4.20
2024-01-29T04:47:44.587Z,-4.20
2024-01-29T04:50:11.385Z,-4.10
2024-01-29T04:52:38.057Z,-4.20
2024-01-29T04:55:06.004Z,-4.20
2024-01-29T04:57:32.841Z,-4.30
2024-01-29T04:59:59.485Z,-4.30
2024-01-29T05:02:26.262Z,-4.30
2024-01-29T05:04:53.011Z,-4.30
2024-01-29T05:07:19.760Z,-4.30
2024-01-29T05:09:46.467Z,-4.30
2024-01-29T05:12:13.150Z,-4.30
2024-01-29T05:14:40.254Z,-4.40
2024-01-29T05:17:07.074Z,-4.40
2024-01-29T05:19:33.811Z,-4.60
2024-01-29T05:22:03.086Z,-4.50
2024-01-29T05:24:29.988Z,-4.50
2024-01-29T05:26:56.674Z,-4.40
2024-01-29T05:29:23.947Z,-4.40
2024-01-29T05:31:50.618Z,-4.40
2024-01-29T05:34:17.433Z,-4.30
2024-01-29T05:36:44.226Z,-4.30
2024-01-29T05:39:10.908Z,-4.40
2024-01-29T05:41:37.469Z,-4.40
2024-01-29T05:44:04.134Z,-4.40
2024-01-29T05:46:30.715Z,-4.40
2024-01-29T05:48:57.541Z,-4.40
2024-01-29T05:51:24.523Z,-4.50
2024-01-29T05:53:51.201Z,-4.60
2024-01-29T05:56:17.978Z,-4.70
2024-01-29T05:58:46.226Z,-4.70
2024-01-29T06:01:12.985Z,-4.80
2024-01-29T06:03:39.697Z,-4.70
2024-01-29T06:06:07.281Z,-4.60
2024-01-29T06:08:34.063Z,-4.60
2024-01-29T06:11:00.670Z,-4.60
2024-01-29T06:13:28.887Z,-4.60
2024-01-29T06:15:55.556Z,-4.60
2024-01-29T06:18:22.798Z,-4.50
2024-01-29T06:20:50.379Z,-4.40
2024-01-29T06:23:18.701Z,-4.50
2024-01-29T06:25:45.358Z,-4.40
2024-01-29T06:28:12.034Z,-4.40
2024-01-29T06:30:38.945Z,-4.40
2024-01-29T06:33:05.735Z,-4.40
2024-01-29T06:35:32.410Z,-4.40
2024-01-29T06:37:59.029Z,-4.40
2024-01-29T06:40:28.634Z,-4.40
2024-01-29T06:42:56.707Z,-4.30
2024-01-29T06:45:23.935Z,-4.50
2024-01-29T06:47:50.623Z,-4.40
2024-01-29T06:50:17.325Z,-4.30
2024-01-29T06:52:44.646Z,-4.10
2024-01-29T06:55:11.469Z,-4.20
2024-01-29T06:57:38.349Z,-4.20
2024-01-29T07:00:05.357Z,-4.10
2024-01-29T07:02:32.342Z,-4.10
2024-01-29T07:04:58.934Z,-4.00
2024-01-29T07:07:25.598Z,-4.00
2024-01-29T07:09:54.147Z,-4.10
2024-01-29T07:12:20.785Z,-4.10
2024-01-29T07:14:47.457Z,-4.00
2024-01-29T07:17:14.331Z,-4.10
2024-01-29T07:19:41.188Z,-4.00
2024-01-29T07:22:09.727Z,-3.90
2024-01-29T07:24:36.646Z,-3.90
2024-01-29T07:27:03.441Z,-3.90
2024-01-29T07:29:32.416Z,-3.90
2024-01-29T07:31:59.494Z,-3.80
2024-01-29T07:39:21.407Z,-3.40
2024-01-29T07:44:15.047Z,-3.20
2024-01-29T07:46:41.836Z,-3.10
2024-01-29T07:49:09.355Z,-3.00
2024-01-29T07:51:36.341Z,-2.80
2024-01-29T07:54:03.244Z,-2.80
2024-01-29T07:56:29.846Z,-2.60
2024-01-29T07:58:56.502Z,-2.50
2024-01-29T08:01:24.261Z,-2.50
2024-01-29T08:03:51.040Z,-2.30
2024-01-29T08:06:17.822Z,-2.20
2024-01-29T08:08:44.530Z,-2.10
2024-01-29T08:11:12.939Z,-2.00
2024-01-29T08:13:39.943Z,-1.80
2024-01-29T08:16:07.016Z,-1.70
2024-01-29T08:18:34.207Z,-1.60
2024-01-29T08:21:01.084Z,-1.60
2024-01-29T08:23:28.052Z,-1.40
2024-01-29T08:25:54.852Z,-1.30
2024-01-29T08:30:48.657Z,-1.10
2024-01-29T08:33:15.387Z,-1.00
2024-01-29T08:35:42.381Z,-1.00
2024-01-29T08:38:11.911Z,-0.90
2024-01-29T08:40:39.132Z,-0.70
2024-01-29T08:43:05.878Z,-0.50
2024-01-29T08:45:32.674Z,-0.50
2024-01-29T08:50:27.301Z,-0.10
2024-01-29T08:52:54.003Z,-0.20
2024-01-29T08:55:20.793Z,0.30
2024-01-29T08:57:47.607Z,0.30
2024-01-29T09:00:14.911Z,0.50
2024-01-29T09:02:42.406Z,0.80
2024-01-29T09:07:36.555Z,0.80
2024-01-29T09:10:04.399Z,1.30
2024-01-29T09:14:58.283Z,1.70
2024-01-29T09:17:24.992Z,1.70
2024-01-29T09:34:35.972Z,3.10
2024-01-29T09:37:02.706Z,3.10
2024-01-29T10:01:34.647Z,4.50
2024-01-29T10:04:01.465Z,4.60
2024-01-29T10:08:58.587Z,4.90
2024-01-29T10:13:58.369Z,5.10
2024-01-29T10:18:59.126Z,5.50
2024-01-29T10:21:25.852Z,5.40
2024-01-29T10:23:59.247Z,5.20
2024-01-29T10:26:27.850Z,5.20
2024-01-29T10:29:05.538Z,5.30
2024-01-29T10:31:33.661Z,5.30
2024-01-29T10:36:36.232Z,5.90
2024-01-29T10:39:04.780Z,6.40
2024-01-29T10:41:32.882Z,6.10
2024-01-29T10:46:27.939Z,6.40
2024-01-29T10:48:55.208Z,6.20
2024-01-29T10:51:22.352Z,6.10
2024-01-29T10:53:49.357Z,7.00
2024-01-29T10:56:17.023Z,6.30
2024-01-29T10:58:44.018Z,6.40
2024-01-29T11:01:11.804Z,6.50
2024-01-29T11:03:38.667Z,6.30
2024-01-29T11:08:33.912Z,6.60
2024-01-29T11:11:04.265Z,6.60
2024-01-29T11:13:33.088Z,7.00
2024-01-29T11:16:00.177Z,7.00
2024-01-29T11:18:32.368Z,7.00
2024-01-29T11:20:59.090Z,7.00
2024-01-29T11:23:30.809Z,7.00
2024-01-29T11:26:01.602Z,7.10
2024-01-29T11:28:28.680Z,7.50
2024-01-29T11:30:55.532Z,7.30
2024-01-29T11:33:22.688Z,7.10
2024-01-29T11:35:57.283Z,7.80
2024-01-29T11:38:24.836Z,7.80
2024-01-29T11:40:51.906Z,8.20
2024-01-29T11:43:22.127Z,8.30
2024-01-29T11:45:49.177Z,9.20
2024-01-29T11:48:16.642Z,10.30
2024-01-29T11:50:46.886Z,10.00
2024-01-29T11:53:17.891Z,10.30
2024-01-29T11:55:45.451Z,10.60
2024-01-29T11:58:14.768Z,11.10
2024-01-29T12:00:45.907Z,10.40
2024-01-29T12:03:17.203Z,10.30
2024-01-29T12:05:44.880Z,11.10
2024-01-29T12:08:15.829Z,11.00
2024-01-29T12:10:43.149Z,11.40
2024-01-29T12:13:12.875Z,11.40
2024-01-29T12:15:39.748Z,10.90
2024-01-29T12:18:10.394Z,10.60
2024-01-29T12:20:38.227Z,10.90
2024-01-29T12:23:05.586Z,11.50
2024-01-29T12:25:32.973Z,10.70
2024-01-29T12:28:04.505Z,11.50
2024-01-29T12:30:31.955Z,11.30
2024-01-29T12:32:58.827Z,12.10
2024-01-29T12:35:29.137Z,10.50
2024-01-29T12:38:09.332Z,11.10
2024-01-29T12:40:36.564Z,11.70
2024-01-29T12:43:06.045Z,11.30
2024-01-29T12:45:33.446Z,11.00
2024-01-29T12:48:06.460Z,11.10
2024-01-29T12:50:33.624Z,11.40
2024-01-29T12:53:01.270Z,11.90
2024-01-29T12:55:28.046Z,12.40
2024-01-29T12:57:54.918Z,12.50
2024-01-29T13:00:22.036Z,12.10
2024-01-29T13:02:49.036Z,11.80
2024-01-29T13:05:15.936Z,12.50
2024-01-29T13:07:42.747Z,12.50
2024-01-29T13:17:31.865Z,13.50
2024-01-29T13:19:58.826Z,14.50
2024-01-29T13:22:25.734Z,14.00
2024-01-29T13:24:52.510Z,13.80
2024-01-29T13:27:20.306Z,12.60
2024-01-29T13:39:35.915Z,15.30
2024-01-29T13:42:02.830Z,16.70
2024-01-29T13:44:29.506Z,15.50
2024-01-29T13:46:56.666Z,17.20
2024-01-29T13:49:24.734Z,17.50
2024-01-29T13:51:51.561Z,17.30
2024-01-29T13:54:18.348Z,16.10
2024-01-29T13:56:45.041Z,16.00
2024-01-29T13:59:11.768Z,15.10
2024-01-29T14:01:39.313Z,15.40
2024-01-29T14:04:06.217Z,14.90
2024-01-29T14:06:32.956Z,14.90
2024-01-29T14:09:00.990Z,14.50
2024-01-29T14:11:27.726Z,16.10
2024-01-29T14:13:54.362Z,14.50
2024-01-29T14:16:21.381Z,14.20
2024-01-29T14:18:50.233Z,15.00
2024-01-29T14:21:17.233Z,15.00
2024-01-29T14:26:25.299Z,14.00
2024-01-29T14:31:45.951Z,14.30
2024-01-29T14:34:25.464Z,13.80
2024-01-29T14:37:07.949Z,13.50
2024-01-29T14:39:37.238Z,14.00
2024-01-29T14:42:13.410Z,12.80
2024-01-29T14:44:43.204Z,12.70
2024-01-29T14:47:09.916Z,12.00
2024-01-29T14:49:36.631Z,11.80
2024-01-29T14:52:05.507Z,10.70
2024-01-29T14:54:32.493Z,10.40
2024-01-29T14:56:59.274Z,10.00
2024-01-29T14:59:25.969Z,10.00
2024-01-29T15:01:52.733Z,10.20
2024-01-29T15:04:19.738Z,10.00
2024-01-29T15:06:46.809Z,10.00
2024-01-29T15:09:13.673Z,9.90
2024-01-29T15:11:40.404Z,10.00
2024-01-29T15:14:07.158Z,9.00
2024-01-29T15:16:33.868Z,8.80
2024-01-29T15:19:01.157Z,8.60
2024-01-29T15:21:28.017Z,8.50
2024-01-29T15:23:54.988Z,8.40
2024-01-29T15:26:22.051Z,8.10
2024-01-29T15:28:48.929Z,7.90
2024-01-29T15:31:16.382Z,7.60
2024-01-29T15:33:43.776Z,7.50
2024-01-29T15:36:11.444Z,7.40
2024-01-29T15:38:38.125Z,7.50
2024-01-29T15:41:05.120Z,7.20
2024-01-29T15:43:36.234Z,7.10
2024-01-29T15:46:03.139Z,6.80
2024-01-29T15:48:29.989Z,6.60
2024-01-29T15:50:59.166Z,6.30
2024-01-29T15:53:26.714Z,6.20
2024-01-29T15:55:54.267Z,5.80
2024-01-29T15:58:21.443Z,5.30
2024-01-29T16:00:48.575Z,4.60
2024-01-29T16:05:42.352Z,4.30
2024-01-29T16:08:10.705Z,4.20
2024-01-29T16:10:37.665Z,4.00
2024-01-29T16:13:04.438Z,4.00
2024-01-29T16:15:31.285Z,3.90
2024-01-29T16:17:58.022Z,3.80
2024-01-29T16:20:24.717Z,3.80
2024-01-29T16:22:51.348Z,3.90
2024-01-29T16:25:18.731Z,3.80
2024-01-29T16:27:45.525Z,3.80
2024-01-29T16:30:12.331Z,3.70
2024-01-29T16:32:39.106Z,3.60
2024-01-29T16:35:06.299Z,3.40
2024-01-29T16:37:33.543Z,3.40
2024-01-29T16:40:00.196Z,3.40
2024-01-29T16:44:53.889Z,3.20
2024-01-29T16:47:20.515Z,3.10
2024-01-29T16:49:48.200Z,3.00
2024-01-29T16:52:15.239Z,2.80
2024-01-29T16:57:09.239Z,2.50
2024-01-29T16:59:37.285Z,2.40
2024-01-29T17:02:05.411Z,2.30
2024-01-29T17:04:38.540Z,2.20
2024-01-29T17:07:05.691Z,2.00
2024-01-29T17:09:33.003Z,2.10
2024-01-29T17:11:59.875Z,2.30
2024-01-29T17:14:26.544Z,2.30
2024-01-29T17:16:53.170Z,2.20
2024-01-29T17:19:21.413Z,2.20
2024-01-29T17:21:48.192Z,2.40
2024-01-29T17:24:14.815Z,2.40
2024-01-29T17:26:41.691Z,2.40
2024-01-29T17:29:08.362Z,2.30
2024-01-29T17:31:34.975Z,2.20
2024-01-29T17:34:01.697Z,2.20
2024-01-29T17:36:29.769Z,2.20
2024-01-29T17:38:56.413Z,2.10
2024-01-29T17:41:23.389Z,2.00
2024-01-29T17:46:17.345Z,1.90
2024-01-29T17:48:44.311Z,2.00
2024-01-29T17:51:11.703Z,1.80
2024-01-29T17:53:38.421Z,1.80
2024-01-29T17:56:05.249Z,1.70
2024-01-29T17:58:32.026Z,1.80
2024-01-29T18:00:58.812Z,1.50
2024-01-29T18:03:25.657Z,1.30
2024-01-29T18:11:51.341Z,1.70
2024-01-29T18:14:18.401Z,1.20
2024-01-29T18:16:45.074Z,1.10
2024-01-29T18:19:11.817Z,1.20
2024-01-29T18:21:39.444Z,1.30
2024-01-29T18:24:06.950Z,1.20
2024-01-29T18:26:36.442Z,1.30
2024-01-29T18:29:03.534Z,1.20
2024-01-29T18:31:30.275Z,1.00
2024-01-29T18:33:57.410Z,1.00
2024-01-29T18:36:26.479Z,1.10
2024-01-29T18:39:15.559Z,1.10
2024-01-29T18:41:42.575Z,1.00
2024-01-29T18:44:09.214Z,0.70
2024-01-29T18:46:37.242Z,0.70
2024-01-29T18:49:04.375Z,0.60
2024-01-29T18:51:31.697Z,0.50
2024-01-29T18:53:59.093Z,0.30
2024-01-29T18:56:26.177Z,0.50
2024-01-29T19:01:26.515Z,0.40
2024-01-29T19:03:53.423Z,0.40
2024-01-29T19:06:20.266Z,-1.00
2024-01-29T19:12:13.185Z,0.30
2024-01-29T19:14:39.829Z,0.30
2024-01-29T19:17:06.839Z,0.40
2024-01-29T19:19:33.759Z,0.40
2024-01-29T19:22:00.504Z,0.30
2024-01-29T19:24:27.205Z,0.40
2024-01-29T19:26:53.909Z,0.30
2024-01-29T19:29:21.838Z,0.30
2024-01-29T19:31:49.659Z,0.30
2024-01-29T19:34:16.540Z,0.20
2024-01-29T19:36:43.841Z,0.20
2024-01-29T19:39:10.976Z,0.20
2024-01-29T19:41:37.642Z,0.20
2024-01-29T19:44:04.567Z,0.10
2024-01-29T19:48:58.285Z,-0.20
2024-01-29T19:51:25.683Z,-0.50
2024-01-29T19:53:52.357Z,-0.50
2024-01-29T19:56:18.952Z,-0.60
2024-01-29T19:58:46.318Z,-0.40
2024-01-29T20:01:13.101Z,-0.50
2024-01-29T20:06:08.904Z,-0.20
2024-01-29T20:08:35.608Z,-0.20
2024-01-29T20:11:02.660Z,-0.20
2024-01-29T20:13:29.535Z,-0.30
2024-01-29T20:15:59.543Z,-0.30
2024-01-29T20:18:28.191Z,-0.30
2024-01-29T20:20:56.379Z,-0.40
2024-01-29T20:23:23.200Z,-0.40
2024-01-29T20:25:49.907Z,-0.70
2024-01-29T20:30:43.764Z,-0.40
2024-01-29T20:33:10.736Z,-0.70
2024-01-29T20:35:37.486Z,-0.90
2024-01-29T20:38:04.240Z,-1.10
2024-01-29T20:40:32.174Z,-0.60
2024-01-29T20:43:01.113Z,-0.90
2024-01-29T20:47:57.776Z,-0.60
2024-01-29T20:50:24.453Z,-0.70
2024-01-29T20:52:52.771Z,-0.70
2024-01-29T20:55:20.536Z,-0.60
2024-01-29T20:57:48.418Z,-0.80
2024-01-29T21:00:15.385Z,-0.70
2024-01-29T21:02:42.029Z,-0.70
2024-01-29T21:11:28.620Z,-0.60
2024-01-29T21:13:55.384Z,-0.60
2024-01-29T21:16:22.096Z,-0.70
2024-01-29T21:18:48.860Z,-0.70
2024-01-29T21:21:15.603Z,-0.80
2024-01-29T21:23:42.272Z,-0.80
2024-01-29T21:26:08.966Z,-0.80
2024-01-29T21:28:35.716Z,-0.80
2024-01-29T21:31:02.355Z,-0.80
2024-01-29T21:33:29.177Z,-0.90
2024-01-29T21:35:57.787Z,-1.00
2024-01-29T21:38:25.981Z,-0.90
2024-01-29T21:40:54.046Z,-1.00
2024-01-29T21:43:20.781Z,-1.20
2024-01-29T21:48:14.597Z,-1.30
2024-01-29T21:50:41.282Z,-1.30
2024-01-29T21:53:07.931Z,-1.30
2024-01-29T21:55:34.834Z,-1.40
2024-01-29T21:58:01.566Z,-1.20
2024-01-29T22:00:28.212Z,-1.30
2024-01-29T22:02:55.145Z,-1.20
2024-01-29T22:05:22.136Z,-1.30
2024-01-29T22:07:48.814Z,-1.30
2024-01-29T22:13:03.308Z,-1.30
2024-01-29T22:15:50.424Z,-1.40
2024-01-29T22:18:17.047Z,-1.30
2024-01-29T22:20:43.674Z,-1.30
2024-01-29T22:23:10.288Z,-1.40
2024-01-29T22:25:36.957Z,-1.40
2024-01-29T22:28:03.735Z,-1.30
2024-01-29T22:30:31.116Z,-1.30
2024-01-29T22:32:57.802Z,-1.30
2024-01-29T22:35:24.543Z,-1.30
2024-01-29T22:37:51.185Z,-1.50
2024-01-29T22:40:17.932Z,-1.50
2024-01-29T22:42:44.623Z,-1.50
2024-01-29T22:45:11.413Z,-1.60
2024-01-29T22:47:38.079Z,-1.60
2024-01-29T22:50:06.476Z,-1.50
2024-01-29T22:52:33.320Z,-1.60
2024-01-29T22:55:00.052Z,-1.60
2024-01-29T22:57:26.694Z,-1.60
2024-01-29T22:59:53.366Z,-1.70
2024-01-29T23:02:23.407Z,-1.70
2024-01-29T23:04:53.369Z,-1.70
2024-01-29T23:09:47.409Z,-1.70
2024-01-29T23:12:14.646Z,-1.60
2024-01-29T23:14:41.558Z,-1.60
2024-01-29T23:19:36.742Z,-1.70
2024-01-29T23:22:03.537Z,-1.70
2024-01-29T23:24:30.257Z,-1.00
2024-01-29T23:26:57.058Z,-1.70
2024-01-29T23:29:23.725Z,-1.00
2024-01-29T23:31:50.445Z,-1.70
2024-01-29T23:34:17.444Z,-1.70
2024-01-29T23:36:44.299Z,-1.70
2024-01-29T23:39:11.023Z,-1.70
2024-01-29T23:41:37.748Z,-1.70
2024-01-29T23:44:04.564Z,-1.80
2024-01-29T23:46:31.502Z,-1.80
2024-01-29T23:48:58.203Z,-1.80
2024-01-29T23:51:24.862Z,-1.80
2024-01-29T23:54:02.331Z,-1.80
2024-01-29T23:56:32.361Z,-1.70
2024-01-29T23:58:59.027Z,-1.70
